BCC981 ENBR-EKCH
Flight info
| Callsign | BCC981 |
|---|---|
| Flight time | 0h 57m |
| Altitude | 37000 |
| Route | TINIG DCT AMSEV DCT TESPI |
| Aircraft | A320/M-SDE3FGHIRWY/LB1 |
Departure
| Time | 2026-04-26 13:14 |
|---|---|
| Airport | Bergen Airport, Flesland (ENBR) |
Arrival
| Time | 2026-04-26 14:12 |
|---|---|
| Airport | Copenhagen Kastrup Airport (EKCH) |
| Time | Latitude | Longitude | Altitude | Speed | Heading |
|---|---|---|---|---|---|
| 2026-04-26 12:36 | 60.28781 | 5.22891 | 176 ft | 0 kts | 80° |
| 2026-04-26 13:05 | 60.28777 | 5.22855 | 175 ft | 4 kts | 81° |
| 2026-04-26 13:05 | 60.28775 | 5.22801 | 175 ft | 4 kts | 103° |
| 2026-04-26 13:05 | 60.28780 | 5.22773 | 175 ft | 2 kts | 206° |
| 2026-04-26 13:06 | 60.28782 | 5.22774 | 175 ft | 0 kts | 208° |
| 2026-04-26 13:10 | 60.28780 | 5.22772 | 175 ft | 0 kts | 208° |
| 2026-04-26 13:10 | 60.28762 | 5.22753 | 175 ft | 6 kts | 208° |
| 2026-04-26 13:11 | 60.28726 | 5.22684 | 174 ft | 9 kts | 252° |
| 2026-04-26 13:11 | 60.28713 | 5.22535 | 174 ft | 12 kts | 256° |
| 2026-04-26 13:11 | 60.28630 | 5.22494 | 169 ft | 17 kts | 172° |
| 2026-04-26 13:11 | 60.28505 | 5.22539 | 165 ft | 19 kts | 170° |
| 2026-04-26 13:12 | 60.28392 | 5.22577 | 161 ft | 13 kts | 170° |
| 2026-04-26 13:12 | 60.28305 | 5.22544 | 159 ft | 15 kts | 227° |
| 2026-04-26 13:12 | 60.28202 | 5.22518 | 155 ft | 16 kts | 169° |
| 2026-04-26 13:12 | 60.28103 | 5.22549 | 152 ft | 13 kts | 178° |
| 2026-04-26 13:13 | 60.28051 | 5.22417 | 152 ft | 14 kts | 261° |
| 2026-04-26 13:13 | 60.28075 | 5.22241 | 153 ft | 15 kts | 336° |
| 2026-04-26 13:13 | 60.28187 | 5.22200 | 153 ft | 18 kts | 350° |
| 2026-04-26 13:13 | 60.28413 | 5.22120 | 156 ft | 61 kts | 350° |
| 2026-04-26 13:14 | 60.29034 | 5.21914 | 163 ft | 118 kts | 349° |
| 2026-04-26 13:14 | 60.29991 | 5.21599 | 252 ft | 150 kts | 348° |
| 2026-04-26 13:14 | 60.30985 | 5.21296 | 964 ft | 142 kts | 349° |
| 2026-04-26 13:14 | 60.31957 | 5.20996 | 1649 ft | 141 kts | 348° |
| 2026-04-26 13:15 | 60.32924 | 5.20664 | 2205 ft | 142 kts | 348° |
| 2026-04-26 13:15 | 60.33845 | 5.20352 | 3096 ft | 134 kts | 349° |
| 2026-04-26 13:15 | 60.34909 | 5.20008 | 3454 ft | 172 kts | 352° |
| 2026-04-26 13:15 | 60.36216 | 5.19622 | 3875 ft | 206 kts | 352° |
| 2026-04-26 13:16 | 60.37747 | 5.19152 | 4554 ft | 233 kts | 351° |
| 2026-04-26 13:16 | 60.39388 | 5.18571 | 5526 ft | 248 kts | 349° |
| 2026-04-26 13:16 | 60.41109 | 5.17947 | 6611 ft | 254 kts | 349° |
| 2026-04-26 13:16 | 60.42857 | 5.17316 | 7733 ft | 257 kts | 348° |
| 2026-04-26 13:17 | 60.46429 | 5.16208 | 9983 ft | 268 kts | 359° |
| 2026-04-26 13:17 | 60.48254 | 5.17272 | 10947 ft | 284 kts | 29° |
| 2026-04-26 13:18 | 60.50111 | 5.24475 | 12865 ft | 315 kts | 88° |
| 2026-04-26 13:18 | 60.49660 | 5.28882 | 13849 ft | 327 kts | 112° |
| 2026-04-26 13:18 | 60.46418 | 5.35374 | 14799 ft | 349 kts | 162° |
| 2026-04-26 13:19 | 60.44016 | 5.36639 | 14926 ft | 366 kts | 170° |
| 2026-04-26 13:19 | 60.41460 | 5.37793 | 15051 ft | 386 kts | 170° |
| 2026-04-26 13:19 | 60.38777 | 5.39003 | 15187 ft | 404 kts | 169° |
| 2026-04-26 13:19 | 60.36006 | 5.40306 | 15601 ft | 413 kts | 166° |
| 2026-04-26 13:20 | 60.33318 | 5.42448 | 16130 ft | 420 kts | 153° |
| 2026-04-26 13:20 | 60.30873 | 5.45725 | 16715 ft | 425 kts | 141° |
| 2026-04-26 13:20 | 60.28794 | 5.49996 | 17316 ft | 430 kts | 128° |
| 2026-04-26 13:20 | 60.27111 | 5.54997 | 17923 ft | 433 kts | 122° |
| 2026-04-26 13:21 | 60.25478 | 5.60127 | 18514 ft | 437 kts | 122° |
| 2026-04-26 13:21 | 60.24386 | 5.63541 | 18858 ft | 439 kts | 122° |
| 2026-04-26 13:21 | 60.22158 | 5.70473 | 19533 ft | 443 kts | 123° |
| 2026-04-26 13:21 | 60.20475 | 5.75686 | 20035 ft | 446 kts | 123° |
| 2026-04-26 13:22 | 60.18775 | 5.80931 | 20532 ft | 449 kts | 123° |
| 2026-04-26 13:22 | 60.17066 | 5.86201 | 21014 ft | 452 kts | 123° |
| 2026-04-26 13:22 | 60.15341 | 5.91502 | 21449 ft | 454 kts | 123° |
| 2026-04-26 13:22 | 60.13606 | 5.96823 | 21889 ft | 457 kts | 123° |
| 2026-04-26 13:23 | 60.11859 | 6.02169 | 22316 ft | 459 kts | 123° |
| 2026-04-26 13:23 | 60.10125 | 6.07477 | 22703 ft | 462 kts | 123° |
| 2026-04-26 13:23 | 60.08357 | 6.12884 | 23094 ft | 465 kts | 123° |
| 2026-04-26 13:23 | 60.06577 | 6.18306 | 23482 ft | 467 kts | 124° |
| 2026-04-26 13:24 | 60.04783 | 6.23742 | 23865 ft | 470 kts | 124° |
| 2026-04-26 13:24 | 60.02910 | 6.29121 | 24164 ft | 472 kts | 129° |
| 2026-04-26 13:24 | 60.00696 | 6.33969 | 24472 ft | 473 kts | 138° |
| 2026-04-26 13:24 | 59.98152 | 6.38116 | 24778 ft | 473 kts | 147° |
| 2026-04-26 13:25 | 59.95342 | 6.41544 | 25063 ft | 474 kts | 153° |
| 2026-04-26 13:25 | 59.92467 | 6.44784 | 25377 ft | 476 kts | 153° |
| 2026-04-26 13:25 | 59.89572 | 6.48037 | 25669 ft | 478 kts | 153° |
| 2026-04-26 13:25 | 59.86663 | 6.51293 | 25984 ft | 480 kts | 153° |
| 2026-04-26 13:26 | 59.83750 | 6.54552 | 26405 ft | 480 kts | 153° |
| 2026-04-26 13:26 | 59.80844 | 6.57806 | 26837 ft | 479 kts | 153° |
| 2026-04-26 13:26 | 59.77942 | 6.61057 | 27254 ft | 479 kts | 153° |
| 2026-04-26 13:26 | 59.75043 | 6.64301 | 27696 ft | 478 kts | 153° |
| 2026-04-26 13:27 | 59.72145 | 6.67538 | 28126 ft | 478 kts | 153° |
| 2026-04-26 13:27 | 59.69242 | 6.70769 | 28578 ft | 478 kts | 153° |
| 2026-04-26 13:27 | 59.66376 | 6.73949 | 29024 ft | 477 kts | 153° |
| 2026-04-26 13:27 | 59.63482 | 6.77155 | 29488 ft | 477 kts | 153° |
| 2026-04-26 13:28 | 59.60585 | 6.80353 | 29964 ft | 477 kts | 153° |
| 2026-04-26 13:28 | 59.57686 | 6.83544 | 30438 ft | 476 kts | 153° |
| 2026-04-26 13:28 | 59.54790 | 6.86726 | 30836 ft | 475 kts | 153° |
| 2026-04-26 13:28 | 59.51894 | 6.89903 | 31231 ft | 475 kts | 153° |
| 2026-04-26 13:29 | 59.49008 | 6.93060 | 31619 ft | 475 kts | 153° |
| 2026-04-26 13:29 | 59.47098 | 6.95146 | 31888 ft | 474 kts | 153° |
| 2026-04-26 13:29 | 59.43238 | 6.99359 | 32476 ft | 473 kts | 153° |
| 2026-04-26 13:29 | 59.40367 | 7.02485 | 32900 ft | 471 kts | 153° |
| 2026-04-26 13:30 | 59.37502 | 7.05603 | 33325 ft | 470 kts | 153° |
| 2026-04-26 13:30 | 59.34644 | 7.08706 | 33746 ft | 469 kts | 154° |
| 2026-04-26 13:30 | 59.31788 | 7.11796 | 34181 ft | 468 kts | 154° |
| 2026-04-26 13:30 | 59.28944 | 7.14870 | 34553 ft | 467 kts | 153° |
| 2026-04-26 13:31 | 59.26098 | 7.17940 | 34848 ft | 467 kts | 154° |
| 2026-04-26 13:31 | 59.23255 | 7.20996 | 35146 ft | 467 kts | 154° |
| 2026-04-26 13:31 | 59.20408 | 7.24053 | 35437 ft | 467 kts | 154° |
| 2026-04-26 13:31 | 59.17594 | 7.27073 | 35726 ft | 467 kts | 154° |
| 2026-04-26 13:32 | 59.14747 | 7.30129 | 36000 ft | 467 kts | 154° |
| 2026-04-26 13:32 | 59.11899 | 7.33174 | 36278 ft | 467 kts | 154° |
| 2026-04-26 13:32 | 59.09052 | 7.36212 | 36546 ft | 467 kts | 154° |
| 2026-04-26 13:32 | 59.06190 | 7.39259 | 36803 ft | 467 kts | 154° |
| 2026-04-26 13:33 | 59.03338 | 7.42290 | 37061 ft | 467 kts | 154° |
| 2026-04-26 13:33 | 59.00484 | 7.45318 | 37241 ft | 468 kts | 154° |
| 2026-04-26 13:33 | 58.97613 | 7.48355 | 37280 ft | 473 kts | 154° |
| 2026-04-26 13:34 | 58.91780 | 7.54505 | 37268 ft | 480 kts | 154° |
| 2026-04-26 13:34 | 58.85899 | 7.60683 | 37260 ft | 481 kts | 154° |
| 2026-04-26 13:35 | 58.80015 | 7.66845 | 37259 ft | 482 kts | 154° |
| 2026-04-26 13:35 | 58.74151 | 7.72953 | 37259 ft | 482 kts | 154° |
| 2026-04-26 13:36 | 58.68244 | 7.79086 | 37262 ft | 483 kts | 154° |
| 2026-04-26 13:36 | 58.62333 | 7.85212 | 37263 ft | 483 kts | 154° |
| 2026-04-26 13:37 | 58.56403 | 7.91332 | 37265 ft | 484 kts | 154° |
| 2026-04-26 13:37 | 58.50470 | 7.97434 | 37275 ft | 484 kts | 154° |
| 2026-04-26 13:38 | 58.44521 | 8.03507 | 37279 ft | 484 kts | 154° |
| 2026-04-26 13:38 | 58.38572 | 8.09561 | 37284 ft | 485 kts | 154° |
| 2026-04-26 13:39 | 58.32617 | 8.15620 | 37288 ft | 485 kts | 154° |
| 2026-04-26 13:39 | 58.26651 | 8.21659 | 37289 ft | 485 kts | 155° |
| 2026-04-26 13:40 | 58.21689 | 8.26649 | 37293 ft | 486 kts | 155° |
| 2026-04-26 13:40 | 58.02752 | 8.45581 | 37311 ft | 485 kts | 155° |
| 2026-04-26 13:41 | 57.78842 | 8.69164 | 37319 ft | 485 kts | 155° |
| 2026-04-26 13:41 | 57.58845 | 8.88969 | 37329 ft | 486 kts | 153° |
| 2026-04-26 13:42 | 57.35129 | 9.13128 | 37330 ft | 485 kts | 154° |
| 2026-04-26 13:42 | 57.11521 | 9.36769 | 37321 ft | 485 kts | 154° |
| 2026-04-26 13:43 | 56.87718 | 9.60193 | 37320 ft | 485 kts | 155° |
| 2026-04-26 13:43 | 56.64226 | 9.82981 | 37315 ft | 485 kts | 155° |
| 2026-04-26 13:44 | 56.58258 | 9.88733 | 37316 ft | 485 kts | 155° |
| 2026-04-26 13:44 | 56.52287 | 9.94462 | 37317 ft | 485 kts | 155° |
| 2026-04-26 13:45 | 56.46318 | 10.00161 | 37315 ft | 485 kts | 155° |
| 2026-04-26 13:45 | 56.40350 | 10.05847 | 37317 ft | 485 kts | 155° |
| 2026-04-26 13:46 | 56.34377 | 10.11507 | 36960 ft | 484 kts | 155° |
| 2026-04-26 13:46 | 56.31393 | 10.14319 | 36699 ft | 483 kts | 155° |
| 2026-04-26 13:46 | 56.28418 | 10.17122 | 36441 ft | 483 kts | 155° |
| 2026-04-26 13:46 | 56.25440 | 10.19929 | 36160 ft | 483 kts | 155° |
| 2026-04-26 13:47 | 56.22453 | 10.22743 | 35364 ft | 487 kts | 156° |
| 2026-04-26 13:47 | 56.19437 | 10.25580 | 34499 ft | 491 kts | 156° |
| 2026-04-26 13:47 | 56.16400 | 10.28431 | 33474 ft | 495 kts | 156° |
| 2026-04-26 13:47 | 56.13348 | 10.31286 | 32547 ft | 495 kts | 156° |
| 2026-04-26 13:48 | 56.10276 | 10.34147 | 31509 ft | 499 kts | 156° |
| 2026-04-26 13:48 | 56.07196 | 10.37011 | 30561 ft | 499 kts | 155° |
| 2026-04-26 13:48 | 56.04103 | 10.39885 | 29346 ft | 502 kts | 155° |
| 2026-04-26 13:48 | 56.00995 | 10.42769 | 28181 ft | 503 kts | 155° |
| 2026-04-26 13:49 | 55.97905 | 10.45707 | 26961 ft | 505 kts | 152° |
| 2026-04-26 13:49 | 55.95024 | 10.49357 | 25949 ft | 508 kts | 141° |
| 2026-04-26 13:49 | 55.92526 | 10.53739 | 25302 ft | 502 kts | 132° |
| 2026-04-26 13:49 | 55.90456 | 10.58703 | 24537 ft | 498 kts | 122° |
| 2026-04-26 13:50 | 55.88871 | 10.64164 | 23746 ft | 494 kts | 112° |
| 2026-04-26 13:50 | 55.87806 | 10.69945 | 22947 ft | 488 kts | 102° |
| 2026-04-26 13:50 | 55.87109 | 10.75723 | 22232 ft | 481 kts | 100° |
| 2026-04-26 13:50 | 55.86410 | 10.81517 | 21492 ft | 476 kts | 101° |
| 2026-04-26 13:51 | 55.85700 | 10.87244 | 20766 ft | 471 kts | 101° |
| 2026-04-26 13:51 | 55.84989 | 10.92906 | 20034 ft | 468 kts | 101° |
| 2026-04-26 13:51 | 55.84244 | 10.98519 | 19336 ft | 464 kts | 102° |
| 2026-04-26 13:51 | 55.83447 | 11.04065 | 18664 ft | 461 kts | 103° |
| 2026-04-26 13:52 | 55.82620 | 11.09548 | 17968 ft | 456 kts | 103° |
| 2026-04-26 13:52 | 55.81788 | 11.14954 | 17561 ft | 446 kts | 103° |
| 2026-04-26 13:52 | 55.80981 | 11.20178 | 17427 ft | 431 kts | 103° |
| 2026-04-26 13:52 | 55.80206 | 11.25233 | 17294 ft | 416 kts | 103° |
| 2026-04-26 13:53 | 55.79465 | 11.30121 | 17163 ft | 402 kts | 102° |
| 2026-04-26 13:53 | 55.78754 | 11.34835 | 17032 ft | 388 kts | 102° |
| 2026-04-26 13:53 | 55.78072 | 11.39401 | 16903 ft | 376 kts | 102° |
| 2026-04-26 13:53 | 55.77487 | 11.43845 | 16773 ft | 363 kts | 94° |
| 2026-04-26 13:54 | 55.77317 | 11.48235 | 16538 ft | 353 kts | 87° |
| 2026-04-26 13:54 | 55.77240 | 11.52575 | 16190 ft | 350 kts | 87° |
| 2026-04-26 13:54 | 55.77162 | 11.56829 | 15849 ft | 348 kts | 88° |
| 2026-04-26 13:55 | 55.76990 | 11.65369 | 15198 ft | 343 kts | 88° |
| 2026-04-26 13:55 | 55.76931 | 11.68172 | 14994 ft | 342 kts | 88° |
| 2026-04-26 13:55 | 55.77045 | 11.77876 | 14251 ft | 329 kts | 72° |
| 2026-04-26 13:56 | 55.77536 | 11.81820 | 13920 ft | 326 kts | 72° |
| 2026-04-26 13:56 | 55.78020 | 11.85748 | 13572 ft | 324 kts | 72° |
| 2026-04-26 13:56 | 55.78497 | 11.89658 | 13239 ft | 322 kts | 72° |
| 2026-04-26 13:56 | 55.78967 | 11.93531 | 12885 ft | 320 kts | 72° |
| 2026-04-26 13:57 | 55.79433 | 11.97383 | 12545 ft | 318 kts | 72° |
| 2026-04-26 13:57 | 55.79896 | 12.01208 | 12209 ft | 315 kts | 72° |
| 2026-04-26 13:57 | 55.80355 | 12.05012 | 11880 ft | 313 kts | 72° |
| 2026-04-26 13:57 | 55.80811 | 12.08787 | 11551 ft | 311 kts | 72° |
| 2026-04-26 13:58 | 55.81262 | 12.12533 | 11236 ft | 309 kts | 72° |
| 2026-04-26 13:58 | 55.81708 | 12.16258 | 10938 ft | 307 kts | 72° |
| 2026-04-26 13:58 | 55.82149 | 12.19951 | 10664 ft | 304 kts | 72° |
| 2026-04-26 13:58 | 55.82583 | 12.23605 | 10438 ft | 300 kts | 73° |
| 2026-04-26 13:59 | 55.83014 | 12.27223 | 10231 ft | 298 kts | 72° |
| 2026-04-26 13:59 | 55.83402 | 12.30842 | 9987 ft | 299 kts | 79° |
| 2026-04-26 13:59 | 55.83346 | 12.34562 | 9765 ft | 304 kts | 96° |
| 2026-04-26 14:00 | 55.80477 | 12.44544 | 9102 ft | 305 kts | 122° |
| 2026-04-26 14:00 | 55.79317 | 12.47698 | 8882 ft | 304 kts | 122° |
| 2026-04-26 14:00 | 55.78539 | 12.49813 | 8737 ft | 302 kts | 122° |
| 2026-04-26 14:01 | 55.77020 | 12.53951 | 8443 ft | 300 kts | 122° |
| 2026-04-26 14:01 | 55.75886 | 12.57053 | 8222 ft | 299 kts | 122° |
| 2026-04-26 14:01 | 55.74757 | 12.60137 | 8018 ft | 296 kts | 122° |
| 2026-04-26 14:01 | 55.73634 | 12.63200 | 7803 ft | 295 kts | 122° |
| 2026-04-26 14:02 | 55.72515 | 12.66241 | 7592 ft | 293 kts | 122° |
| 2026-04-26 14:02 | 55.71411 | 12.69227 | 7383 ft | 292 kts | 122° |
| 2026-04-26 14:02 | 55.70302 | 12.72223 | 7127 ft | 291 kts | 122° |
| 2026-04-26 14:02 | 55.69185 | 12.75251 | 6747 ft | 292 kts | 123° |
| 2026-04-26 14:03 | 55.68077 | 12.78251 | 6440 ft | 289 kts | 123° |
| 2026-04-26 14:03 | 55.66983 | 12.81207 | 6224 ft | 285 kts | 123° |
| 2026-04-26 14:03 | 55.65896 | 12.84139 | 6013 ft | 284 kts | 123° |
| 2026-04-26 14:03 | 55.64814 | 12.87055 | 5810 ft | 283 kts | 123° |
| 2026-04-26 14:04 | 55.63737 | 12.89959 | 5600 ft | 280 kts | 123° |
| 2026-04-26 14:04 | 55.62684 | 12.92797 | 5466 ft | 271 kts | 123° |
| 2026-04-26 14:04 | 55.61651 | 12.95519 | 5336 ft | 263 kts | 124° |
| 2026-04-26 14:04 | 55.60638 | 12.98152 | 5203 ft | 255 kts | 124° |
| 2026-04-26 14:05 | 55.59650 | 13.00708 | 5018 ft | 250 kts | 125° |
| 2026-04-26 14:05 | 55.58641 | 13.03192 | 4708 ft | 247 kts | 134° |
| 2026-04-26 14:05 | 55.57249 | 13.04829 | 4558 ft | 239 kts | 165° |
| 2026-04-26 14:05 | 55.55617 | 13.05160 | 4426 ft | 235 kts | 193° |
| 2026-04-26 14:06 | 55.54125 | 13.04188 | 4238 ft | 228 kts | 216° |
| 2026-04-26 14:06 | 55.52825 | 13.02686 | 4125 ft | 216 kts | 225° |
| 2026-04-26 14:06 | 55.51857 | 13.00718 | 4125 ft | 211 kts | 243° |
| 2026-04-26 14:06 | 55.51299 | 12.98375 | 4064 ft | 204 kts | 261° |
| 2026-04-26 14:07 | 55.51179 | 12.95961 | 3901 ft | 193 kts | 277° |
| 2026-04-26 14:07 | 55.51457 | 12.93693 | 3709 ft | 187 kts | 292° |
| 2026-04-26 14:07 | 55.52073 | 12.91688 | 3469 ft | 186 kts | 303° |
| 2026-04-26 14:07 | 55.52793 | 12.89766 | 3208 ft | 189 kts | 304° |
| 2026-04-26 14:08 | 55.53511 | 12.87849 | 2956 ft | 186 kts | 304° |
| 2026-04-26 14:08 | 55.54217 | 12.85960 | 2723 ft | 181 kts | 304° |
| 2026-04-26 14:08 | 55.54903 | 12.84125 | 2453 ft | 177 kts | 304° |
| 2026-04-26 14:08 | 55.55570 | 12.82337 | 2205 ft | 173 kts | 304° |
| 2026-04-26 14:09 | 55.56222 | 12.80587 | 1967 ft | 169 kts | 303° |
| 2026-04-26 14:09 | 55.56859 | 12.78877 | 1735 ft | 164 kts | 304° |
| 2026-04-26 14:09 | 55.57461 | 12.77260 | 1506 ft | 150 kts | 304° |
| 2026-04-26 14:09 | 55.58004 | 12.75801 | 1315 ft | 139 kts | 304° |
| 2026-04-26 14:10 | 55.58528 | 12.74391 | 1125 ft | 136 kts | 304° |
| 2026-04-26 14:10 | 55.59045 | 12.72999 | 934 ft | 135 kts | 304° |
| 2026-04-26 14:10 | 55.59557 | 12.71616 | 732 ft | 135 kts | 304° |
| 2026-04-26 14:10 | 55.60077 | 12.70235 | 531 ft | 134 kts | 304° |
| 2026-04-26 14:11 | 55.61104 | 12.67460 | 110 ft | 134 kts | 302° |
| 2026-04-26 14:11 | 55.61605 | 12.66106 | 27 ft | 124 kts | 302° |
| 2026-04-26 14:11 | 55.61990 | 12.65064 | 19 ft | 76 kts | 303° |
| 2026-04-26 14:12 | 55.62158 | 12.64723 | 22 ft | 20 kts | 9° |
| 2026-04-26 14:12 | 55.62206 | 12.64764 | 24 ft | 0 kts | 36° |
| 2026-04-26 14:12 | 55.62206 | 12.64765 | 24 ft | 0 kts | 36° |
| 2026-04-26 14:13 | 55.62224 | 12.64784 | 23 ft | 6 kts | 28° |
| 2026-04-26 14:13 | 55.62275 | 12.64791 | 23 ft | 10 kts | 354° |
| 2026-04-26 14:14 | 55.62360 | 12.64779 | 22 ft | 14 kts | 352° |
| 2026-04-26 14:14 | 55.62436 | 12.64647 | 22 ft | 17 kts | 302° |
| 2026-04-26 14:14 | 55.62503 | 12.64455 | 20 ft | 19 kts | 304° |
| 2026-04-26 14:14 | 55.62576 | 12.64260 | 22 ft | 17 kts | 302° |
| 2026-04-26 14:15 | 55.62626 | 12.64173 | 22 ft | 5 kts | 9° |
| 2026-04-26 14:15 | 55.62632 | 12.64185 | 22 ft | 2 kts | 41° |
| 2026-04-26 14:15 | 55.62647 | 12.64203 | 25 ft | 3 kts | 36° |
| 2026-04-26 14:15 | 55.62664 | 12.64223 | 23 ft | 3 kts | 32° |
| 2026-04-26 14:16 | 55.62669 | 12.64228 | 23 ft | 0 kts | 32° |